Time;durP1;ratioP1;P1;durP2;ratioP2;P2;SDS_P1;SDS_P2;PMS_P1;PMS_P2;Temp;Humidity;BMP_temperature;BMP_pressure;BME280_temperature;BME280_humidity;BME280_pressure;Samples;Min_cycle;Max_cycle;Signal;HPM_P1;HPM_P2
2022/08/28 00:00:23;;;;;;;2.85;1.33;;;;;;;22.40;67.17;100941.28;5016013;28;20117;-85
2022/08/28 00:02:48;;;;;;;4.90;1.48;;;;;;;22.34;68.24;100950.81;5014286;28;20080;-86
2022/08/28 00:05:16;;;;;;;3.95;1.83;;;;;;;22.28;68.21;100950.66;5014269;28;20024;-85
2022/08/28 00:07:41;;;;;;;2.63;1.23;;;;;;;22.21;69.51;100954.97;5014099;28;20029;-85
2022/08/28 00:10:08;;;;;;;6.85;2.17;;;;;;;21.97;71.09;100956.63;5014080;28;20498;-84
2022/08/28 00:12:35;;;;;;;4.93;1.73;;;;;;;21.93;72.04;100958.78;5014004;28;20037;-85
2022/08/28 00:15:05;;;;;;;3.95;1.63;;;;;;;21.84;74.32;100964.28;5015650;28;20024;-85
2022/08/28 00:17:30;;;;;;;8.50;1.75;;;;;;;22.07;75.71;100956.47;5015673;28;20080;-85
2022/08/28 00:19:55;;;;;;;4.38;1.48;;;;;;;22.11;75.89;100963.97;5013979;28;20127;-85
2022/08/28 00:22:21;;;;;;;3.45;1.50;;;;;;;21.98;75.30;100960.97;5013917;28;20022;-85
2022/08/28 00:24:46;;;;;;;3.47;1.58;;;;;;;21.99;72.38;100967.97;5013873;28;20380;-85
2022/08/28 00:29:56;;;;;;;4.53;1.90;;;;;;;21.89;73.56;100953.94;5013611;28;20041;-85
2022/08/28 00:32:22;;;;;;;6.40;1.80;;;;;;;21.85;73.38;100955.28;5015749;28;20042;-85
2022/08/28 00:34:48;;;;;;;3.72;1.58;;;;;;;21.80;72.71;100966.47;5013708;28;20052;-85
2022/08/28 00:37:14;;;;;;;3.97;1.58;;;;;;;21.74;73.14;100967.94;5013464;28;20037;-85
2022/08/28 00:39:39;;;;;;;4.18;1.80;;;;;;;21.64;72.73;100972.56;5013747;28;20022;-86
2022/08/28 00:42:05;;;;;;;5.75;1.77;;;;;;;21.55;73.09;100968.22;5013656;28;20430;-86
2022/08/28 00:44:30;;;;;;;6.05;1.88;;;;;;;21.37;74.30;100970.97;5028662;28;20407;-85
2022/08/28 00:46:57;;;;;;;5.93;1.50;;;;;;;21.21;74.62;100977.09;5015166;28;20037;-85
2022/08/28 00:49:27;;;;;;;4.18;1.45;;;;;;;21.11;76.44;100977.22;5013555;28;20088;-85
2022/08/28 00:52:07;;;;;;;6.47;1.83;;;;;;;20.81;79.44;100975.84;5013326;28;20030;-85
2022/08/28 00:54:41;;;;;;;4.65;2.20;;;;;;;20.80;81.29;100979.53;5013345;28;20049;-85
2022/08/28 00:57:12;;;;;;;5.88;2.30;;;;;;;20.82;82.77;100977.53;5013201;28;20411;-85
2022/08/28 00:59:37;;;;;;;4.57;2.28;;;;;;;20.74;83.36;100978.31;5013077;28;20030;-84
2022/08/28 01:02:05;;;;;;;8.00;3.03;;;;;;;20.86;83.62;100973.56;5015161;28;20037;-84
2022/08/28 01:04:32;;;;;;;7.93;2.25;;;;;;;20.71;84.46;100980.47;5013073;28;20030;-85
2022/08/28 01:07:01;;;;;;;9.88;2.95;;;;;;;20.71;84.96;100977.78;5012976;28;20116;-84
2022/08/28 01:09:29;;;;;;;4.85;2.70;;;;;;;20.88;84.71;100982.25;5013021;28;20061;-85
2022/08/28 01:12:05;;;;;;;7.68;2.20;;;;;;;20.97;84.46;100986.63;5012716;28;20065;-85
2022/08/28 01:14:35;;;;;;;4.38;2.20;;;;;;;20.96;84.43;100982.28;5011652;28;20391;-85
2022/08/28 01:17:01;;;;;;;5.95;2.33;;;;;;;20.58;85.65;100981.69;5013210;28;20045;-85
2022/08/28 01:19:47;;;;;;;8.70;2.55;;;;;;;20.72;85.94;100982.16;5013350;28;20026;-85
2022/08/28 01:22:47;;;;;;;4.97;2.30;;;;;;;20.70;86.85;100978.78;5016149;28;20331;-86
2022/08/28 01:25:18;;;;;;;5.85;2.08;;;;;;;20.67;87.16;100979.94;5015113;28;20065;-85
2022/08/28 01:27:44;;;;;;;4.30;2.03;;;;;;;20.48;87.72;100993.41;5012661;28;20068;-85
2022/08/28 01:30:13;;;;;;;3.35;2.05;;;;;;;20.38;88.14;100986.38;5012640;28;20026;-85
2022/08/28 01:32:46;;;;;;;4.05;2.40;;;;;;;20.24;90.15;100994.91;5012456;28;20029;-86
2022/08/28 01:35:16;;;;;;;6.85;2.53;;;;;;;20.20;89.97;100993.50;5029095;28;20033;-85
2022/08/28 01:37:42;;;;;;;4.30;2.08;;;;;;;20.29;90.72;100991.78;5012415;28;20029;-85
2022/08/28 01:40:11;;;;;;;8.05;2.50;;;;;;;19.96;92.15;100996.78;5012414;28;20030;-85
2022/08/28 01:42:38;;;;;;;6.28;2.17;;;;;;;19.83;93.92;100996.31;5010772;28;20057;-85
2022/08/28 01:45:06;;;;;;;7.90;3.17;;;;;;;19.61;94.59;100993.06;5012409;28;20049;-85
2022/08/28 01:47:32;;;;;;;4.32;2.35;;;;;;;19.67;95.01;100997.78;5010969;28;20017;-85
2022/08/28 01:49:58;;;;;;;4.88;2.65;;;;;;;19.76;94.68;100994.25;5012928;28;20507;-85
2022/08/28 01:52:24;;;;;;;4.75;2.83;;;;;;;19.69;94.79;100995.81;5013624;28;20057;-85
2022/08/28 01:54:50;;;;;;;6.57;3.65;;;;;;;19.78;96.32;101000.25;5011228;28;20026;-85
2022/08/28 01:57:15;;;;;;;8.65;4.13;;;;;;;19.83;96.24;100996.31;5012153;28;20025;-85
2022/08/28 01:59:41;;;;;;;11.18;6.00;;;;;;;19.93;98.37;101005.09;5011986;28;20427;-85
2022/08/28 02:02:09;;;;;;;14.50;7.40;;;;;;;20.06;98.46;101005.56;5012203;28;20037;-85
2022/08/28 02:04:34;;;;;;;12.32;7.47;;;;;;;20.02;99.30;101006.84;5014416;28;20026;-85
2022/08/28 02:07:00;;;;;;;9.63;6.10;;;;;;;20.14;98.33;101011.00;5011999;28;20505;-85
2022/08/28 02:09:25;;;;;;;10.98;5.55;;;;;;;20.10;98.49;101006.94;5012215;28;20498;-85
2022/08/28 02:11:51;;;;;;;9.23;5.05;;;;;;;20.09;98.76;101004.44;5012035;28;20041;-85
2022/08/28 02:14:17;;;;;;;10.05;5.97;;;;;;;20.03;98.70;101003.19;5011890;28;20096;-85
2022/08/28 02:16:42;;;;;;;12.35;5.47;;;;;;;20.00;98.98;101011.50;5012135;28;20105;-85
2022/08/28 02:19:10;;;;;;;10.18;6.35;;;;;;;19.89;99.74;101009.06;5012039;28;20056;-85
2022/08/28 02:21:36;;;;;;;9.10;5.65;;;;;;;19.89;100.00;101011.72;5013813;28;20022;-85
2022/08/28 02:24:03;;;;;;;12.38;5.97;;;;;;;19.91;99.32;101010.56;5011937;28;20032;-85
2022/08/28 02:26:30;;;;;;;16.50;6.75;;;;;;;19.91;100.00;101015.06;5012073;28;20034;-85
2022/08/28 02:28:57;;;;;;;16.98;7.28;;;;;;;19.78;100.00;101016.25;5011887;28;20076;-85
2022/08/28 02:31:23;;;;;;;10.27;7.35;;;;;;;19.86;100.00;101017.34;5011944;28;20364;-85
2022/08/28 02:33:48;;;;;;;12.05;7.25;;;;;;;19.86;100.00;101017.34;5012029;28;20040;-85
2022/08/28 02:36:15;;;;;;;12.27;7.57;;;;;;;19.88;100.00;101016.19;5013887;28;20030;-85
2022/08/28 02:38:42;;;;;;;14.05;6.75;;;;;;;19.76;100.00;101018.22;5011696;28;20026;-85
2022/08/28 02:41:08;;;;;;;14.13;8.00;;;;;;;19.83;100.00;101015.81;5011733;28;20030;-85
2022/08/28 02:43:34;;;;;;;11.00;7.63;;;;;;;19.92;100.00;101022.06;5011829;28;20472;-85
2022/08/28 02:45:59;;;;;;;13.85;7.85;;;;;;;19.79;100.00;101020.59;5011761;28;20100;-85
2022/08/28 02:48:34;;;;;;;13.95;7.65;;;;;;;19.92;100.00;101022.06;5011886;28;20156;-85
2022/08/28 02:51:03;;;;;;;10.95;7.55;;;;;;;19.87;100.00;101024.38;5013729;28;20124;-85
2022/08/28 02:53:29;;;;;;;14.00;8.13;;;;;;;19.98;100.00;101030.31;5012950;28;20534;-85
2022/08/28 02:55:55;;;;;;;13.52;8.18;;;;;;;19.96;100.00;101018.13;5015371;28;20068;-84
2022/08/28 02:58:20;;;;;;;12.45;6.93;;;;;;;19.97;100.00;101020.63;5015640;28;20109;-85
2022/08/28 03:00:46;;;;;;;12.88;7.15;;;;;;;20.02;100.00;101028.16;5015351;28;20570;-85
2022/08/28 03:03:11;;;;;;;11.90;6.93;;;;;;;19.80;100.00;101030.25;5015039;28;20037;-85
2022/08/28 03:05:37;;;;;;;9.00;6.60;;;;;;;19.82;100.00;101024.78;5015837;28;20032;-84
2022/08/28 03:08:03;;;;;;;11.88;7.20;;;;;;;19.90;100.00;101024.88;5015184;28;20045;-85
2022/08/28 03:10:28;;;;;;;12.43;6.82;;;;;;;19.79;100.00;101035.75;5015276;28;20048;-85
2022/08/28 03:12:54;;;;;;;13.70;7.97;;;;;;;19.84;100.00;101036.13;5015244;28;20114;-85
2022/08/28 03:15:19;;;;;;;10.52;6.25;;;;;;;19.93;100.00;101034.41;5015132;28;20026;-85
2022/08/28 03:17:45;;;;;;;10.38;6.90;;;;;;;19.85;100.00;101032.50;5015103;28;20057;-85
2022/08/28 03:20:11;;;;;;;8.48;7.00;;;;;;;19.66;100.00;101040.56;5015151;28;20454;-85
2022/08/28 03:25:22;;;;;;;9.85;6.57;;;;;;;19.76;100.00;101044.88;5015122;28;20127;-86
2022/08/28 03:27:48;;;;;;;13.30;7.20;;;;;;;19.65;100.00;101036.22;5014931;28;20074;-86
2022/08/28 03:30:13;;;;;;;12.52;6.25;;;;;;;19.70;100.00;101045.44;5014810;28;20025;-84
2022/08/28 03:32:39;;;;;;;8.20;5.65;;;;;;;19.55;100.00;101037.13;5014720;28;20110;-86
2022/08/28 03:35:05;;;;;;;11.15;6.68;;;;;;;19.54;100.00;101039.91;5014683;28;20438;-86
2022/08/28 03:37:30;;;;;;;11.55;5.93;;;;;;;19.56;100.00;101032.63;5016468;28;20565;-86
2022/08/28 03:39:56;;;;;;;7.15;5.57;;;;;;;19.64;100.00;101030.06;5014802;28;20216;-86
2022/08/28 03:42:21;;;;;;;12.25;5.70;;;;;;;19.57;100.00;101029.81;5014622;28;20029;-86
2022/08/28 03:44:47;;;;;;;7.15;5.50;;;;;;;19.61;100.00;101038.34;5014601;28;20033;-86
2022/08/28 03:47:13;;;;;;;6.93;4.32;;;;;;;19.33;100.00;101038.34;5014457;28;20022;-86
2022/08/28 03:49:39;;;;;;;8.40;4.68;;;;;;;19.30;100.00;101038.63;5014506;28;20487;-86
2022/08/28 03:52:04;;;;;;;8.40;4.30;;;;;;;19.55;100.00;101036.25;5019102;28;20537;-86
2022/08/28 03:54:30;;;;;;;6.43;3.75;;;;;;;19.57;100.00;101043.13;5034247;28;20026;-86
2022/08/28 03:56:56;;;;;;;8.40;3.67;;;;;;;19.35;100.00;101039.03;5034105;28;20030;-86
2022/08/28 03:59:22;;;;;;;8.48;3.85;;;;;;;19.56;100.00;101043.28;5034406;28;20030;-85
2022/08/28 04:01:47;;;;;;;5.45;3.08;;;;;;;19.58;100.00;101041.31;5034140;28;20029;-86
2022/08/28 04:04:12;;;;;;;11.13;3.47;;;;;;;19.55;100.00;101039.78;5033737;28;20056;-86
2022/08/28 04:06:38;;;;;;;4.93;2.38;;;;;;;19.34;100.00;101031.19;5031379;28;20057;-86
2022/08/28 04:09:04;;;;;;;6.30;2.25;;;;;;;19.37;100.00;101038.84;5014692;28;20033;-86
2022/08/28 04:11:29;;;;;;;4.43;2.20;;;;;;;19.46;100.00;101042.47;5013930;28;20029;-86
2022/08/28 04:13:55;;;;;;;6.13;2.40;;;;;;;19.32;99.66;101039.31;5014130;28;20037;-86
2022/08/28 04:16:20;;;;;;;4.50;1.58;;;;;;;19.27;99.13;101036.22;5014037;28;20418;-86
2022/08/28 04:18:48;;;;;;;6.20;2.08;;;;;;;19.35;98.47;101036.38;5013852;28;20445;-86
2022/08/28 04:21:17;;;;;;;4.47;1.90;;;;;;;19.33;98.24;101043.66;5018297;28;20047;-86
2022/08/28 04:23:44;;;;;;;5.25;1.95;;;;;;;19.37;97.72;101037.06;5027467;28;20059;-86
2022/08/28 04:26:18;;;;;;;5.18;1.67;;;;;;;19.45;97.45;101041.66;5033826;28;20033;-86
2022/08/28 04:28:44;;;;;;;5.28;2.00;;;;;;;19.40;97.49;101044.72;5033596;28;20560;-86
2022/08/28 04:31:09;;;;;;;5.60;1.67;;;;;;;19.54;97.57;101055.91;5033529;28;20086;-86
2022/08/28 04:33:36;;;;;;;7.00;2.00;;;;;;;19.37;98.73;101044.19;5033464;28;20018;-86
2022/08/28 04:36:04;;;;;;;4.60;2.00;;;;;;;19.47;97.51;101041.47;5033578;28;20411;-86
2022/08/28 04:38:29;;;;;;;9.98;1.80;;;;;;;19.39;98.21;101047.53;5020695;28;20022;-86
2022/08/28 04:40:55;;;;;;;4.25;1.25;;;;;;;19.33;98.10;101046.31;5013510;28;20083;-86
2022/08/28 04:43:20;;;;;;;3.78;1.50;;;;;;;19.52;97.40;101053.38;5013452;28;20061;-86
2022/08/28 04:45:45;;;;;;;6.13;1.75;;;;;;;19.56;96.59;101048.59;5013577;28;20088;-86
2022/08/28 04:48:12;;;;;;;3.25;1.35;;;;;;;19.46;97.39;101045.16;5013386;28;20492;-86
2022/08/28 04:50:43;;;;;;;5.50;1.70;;;;;;;19.53;97.75;101049.75;5013245;28;20021;-86
2022/08/28 04:53:09;;;;;;;6.18;2.05;;;;;;;19.59;96.82;101053.66;5015357;28;20037;-86
2022/08/28 04:55:42;;;;;;;4.07;1.40;;;;;;;19.52;97.41;101050.72;5013299;28;20022;-86
2022/08/28 04:58:08;;;;;;;4.15;1.88;;;;;;;19.38;97.71;101059.19;5013289;28;20029;-86
2022/08/28 05:00:37;;;;;;;6.07;1.83;;;;;;;19.37;98.20;101060.16;5013304;28;20038;-86
2022/08/28 05:03:03;;;;;;;3.45;1.42;;;;;;;19.46;98.21;101059.28;5013098;28;20029;-86
2022/08/28 05:05:28;;;;;;;5.18;1.58;;;;;;;19.51;97.63;101062.38;5013036;28;20037;-87
2022/08/28 05:07:54;;;;;;;6.45;1.75;;;;;;;19.61;98.03;101072.97;5015260;28;20029;-86
2022/08/28 05:10:19;;;;;;;3.47;1.73;;;;;;;19.60;98.38;101073.97;5012963;28;20475;-86
2022/08/28 05:12:45;;;;;;;6.30;2.10;;;;;;;19.44;98.83;101071.91;5012938;28;20040;-86
2022/08/28 05:15:11;;;;;;;3.80;1.27;;;;;;;19.51;100.00;101074.81;5012773;28;20498;-86
2022/08/28 05:17:36;;;;;;;3.30;1.55;;;;;;;19.52;99.80;101071.19;5012308;28;20017;-86
2022/08/28 05:20:02;;;;;;;2.67;1.35;;;;;;;19.55;99.73;101073.53;5012930;28;20387;-86
2022/08/28 05:22:30;;;;;;;3.38;1.30;;;;;;;19.49;100.00;101080.31;5012870;28;20053;-86
2022/08/28 05:24:55;;;;;;;2.90;1.10;;;;;;;19.52;99.49;101072.03;5030094;28;20443;-86
2022/08/28 05:27:22;;;;;;;5.82;1.52;;;;;;;19.47;100.00;101081.44;5012716;28;20110;-86
2022/08/28 05:29:49;;;;;;;3.95;1.67;;;;;;;19.57;100.00;101084.91;5012620;28;20526;-86
2022/08/28 05:32:14;;;;;;;3.95;1.73;;;;;;;19.54;99.18;101087.84;5012720;28;20557;-86
2022/08/28 05:34:39;;;;;;;3.22;1.58;;;;;;;19.48;100.00;101091.94;5012885;28;20026;-86
2022/08/28 05:37:07;;;;;;;5.15;1.92;;;;;;;19.56;99.71;101091.22;5012606;28;20613;-86
2022/08/28 05:39:33;;;;;;;3.05;1.50;;;;;;;19.61;99.51;101084.47;5014360;28;20026;-86
2022/08/28 05:41:58;;;;;;;4.68;1.20;;;;;;;19.67;99.60;101088.38;5012550;28;20037;-86
2022/08/28 05:44:24;;;;;;;5.18;1.30;;;;;;;19.60;100.00;101081.94;5012529;28;20025;-86
2022/08/28 05:46:49;;;;;;;4.20;1.40;;;;;;;19.65;99.57;101081.50;5012446;28;20026;-86
2022/08/28 05:49:18;;;;;;;9.88;1.48;;;;;;;19.56;99.89;101080.56;5027467;28;20030;-87
2022/08/28 05:51:44;;;;;;;2.83;1.13;;;;;;;19.61;100.00;101089.78;5012375;28;20026;-86
2022/08/28 05:54:10;;;;;;;7.63;1.90;;;;;;;19.73;100.00;101086.97;5014455;28;20109;-86
2022/08/28 05:56:39;;;;;;;8.40;1.90;;;;;;;19.79;99.99;101081.91;5012372;28;20084;-86
2022/08/28 05:59:06;;;;;;;2.78;1.27;;;;;;;19.63;100.00;101092.31;5012295;28;20522;-85
2022/08/28 06:01:35;;;;;;;3.33;1.38;;;;;;;19.67;100.00;101099.03;5012748;28;20022;-86
2022/08/28 06:04:06;;;;;;;5.95;1.40;;;;;;;19.69;100.00;101098.88;5012359;28;20097;-86
2022/08/28 06:06:33;;;;;;;8.65;1.35;;;;;;;19.72;100.00;101103.94;5012334;28;20054;-85
2022/08/28 06:09:07;;;;;;;6.75;1.52;;;;;;;19.79;100.00;101107.72;5014059;28;20024;-86
2022/08/28 06:11:32;;;;;;;4.88;1.55;;;;;;;19.70;100.00;101112.03;5011690;28;20661;-86
2022/08/28 06:14:00;;;;;;;2.47;1.33;;;;;;;19.80;100.00;101114.69;5010952;28;20351;-86
2022/08/28 06:16:26;;;;;;;5.70;1.45;;;;;;;19.89;100.00;101118.31;5012175;28;20022;-86
2022/08/28 06:18:51;;;;;;;4.55;1.60;;;;;;;19.97;100.00;101116.59;5012083;28;20029;-86
2022/08/28 06:21:17;;;;;;;4.40;1.60;;;;;;;19.90;100.00;101122.66;5010575;28;20026;-85
2022/08/28 06:23:43;;;;;;;3.72;1.67;;;;;;;19.98;99.87;101122.75;5011521;28;20022;-86
2022/08/28 06:26:09;;;;;;;5.82;1.88;;;;;;;20.01;100.00;101127.78;5030727;28;20034;-86
2022/08/28 06:28:34;;;;;;;5.07;1.30;;;;;;;20.13;98.89;101126.59;5034721;28;20033;-85
2022/08/28 06:31:02;;;;;;;5.70;2.00;;;;;;;20.29;97.47;101125.13;5032553;28;20029;-86
2022/08/28 06:33:28;;;;;;;2.60;1.58;;;;;;;20.24;98.68;101127.38;5035542;28;20395;-85
2022/08/28 06:35:54;;;;;;;3.58;1.40;;;;;;;20.40;97.63;101132.91;5035482;28;20076;-85
2022/08/28 06:38:23;;;;;;;6.05;1.98;;;;;;;20.44;98.20;101130.75;5035116;28;20026;-86
2022/08/28 06:40:54;;;;;;;4.00;1.20;;;;;;;20.46;98.71;101126.97;5022403;28;20435;-87
2022/08/28 06:43:26;;;;;;;6.32;2.40;;;;;;;20.57;98.00;101129.38;5015573;28;20476;-86
2022/08/28 06:45:53;;;;;;;6.80;1.92;;;;;;;20.68;97.58;101131.03;5015048;28;20045;-88
2022/08/28 06:48:20;;;;;;;3.63;2.05;;;;;;;20.60;95.88;101139.81;5016312;28;20026;-88
2022/08/28 06:50:51;;;;;;;6.03;1.92;;;;;;;20.67;94.75;101133.84;5031848;28;20545;-87
2022/08/28 06:53:19;;;;;;;11.85;2.55;;;;;;;21.28;92.69;101133.00;5035168;28;20418;-86
2022/08/28 06:55:44;;;;;;;7.30;1.52;;;;;;;21.54;89.93;101133.06;5031134;28;20072;-87
2022/08/28 06:58:11;;;;;;;9.80;2.20;;;;;;;21.89;88.21;101138.41;5015264;28;20022;-87
2022/08/28 07:00:37;;;;;;;5.38;2.05;;;;;;;22.25;85.21;101133.69;5030982;28;20033;-87
2022/08/28 07:03:04;;;;;;;6.30;1.80;;;;;;;22.22;84.04;101135.84;5035039;28;20021;-86
2022/08/28 07:05:30;;;;;;;4.07;1.92;;;;;;;22.43;83.36;101144.28;5034838;28;20053;-87
2022/08/28 07:07:56;;;;;;;3.78;1.90;;;;;;;22.49;82.63;101142.78;5033483;28;20551;-86
2022/08/28 07:10:21;;;;;;;7.05;2.05;;;;;;;22.64;79.78;101146.50;5031470;28;20060;-87
2022/08/28 07:12:50;;;;;;;3.92;1.40;;;;;;;22.54;79.61;101146.66;5033237;28;20068;-87
2022/08/28 07:15:17;;;;;;;7.28;2.28;;;;;;;22.56;80.51;101157.19;5033732;28;20033;-87
2022/08/28 07:17:42;;;;;;;8.18;2.67;;;;;;;22.50;80.21;101156.00;5034712;28;20084;-87
2022/08/28 07:20:10;;;;;;;7.80;1.92;;;;;;;22.41;81.33;101153.47;5036724;28;20470;-87
2022/08/28 07:22:35;;;;;;;8.55;2.10;;;;;;;22.32;81.44;101153.47;5031992;28;20021;-88
2022/08/28 07:25:01;;;;;;;7.15;2.03;;;;;;;22.03;82.79;101159.19;5045498;28;20383;-88
2022/08/28 07:27:26;;;;;;;4.70;1.65;;;;;;;22.21;82.63;101156.41;5034303;28;20029;-85
2022/08/28 07:29:52;;;;;;;7.47;1.70;;;;;;;22.37;81.69;101153.81;5040327;28;20532;-87
2022/08/28 07:32:20;;;;;;;8.05;1.90;;;;;;;22.03;83.47;101153.81;5038839;28;20025;-87
2022/08/28 07:34:46;;;;;;;5.38;1.30;;;;;;;21.90;84.41;101153.44;5043722;28;20075;-87
2022/08/28 07:37:11;;;;;;;3.22;1.27;;;;;;;21.83;84.81;101153.25;5037770;28;20431;-86
2022/08/28 07:39:37;;;;;;;11.77;1.90;;;;;;;22.44;82.74;101156.66;5015040;28;20746;-86
2022/08/28 07:42:02;;;;;;;5.13;1.65;;;;;;;22.79;79.74;101157.41;5015503;28;20030;-86
2022/08/28 07:47:12;;;;;;;6.05;1.13;;;;;;;22.92;79.04;101159.56;5033318;28;20387;-86
2022/08/28 07:49:39;;;;;;;6.03;1.80;;;;;;;23.47;76.77;101158.06;5048735;28;20143;-86
2022/08/28 07:52:06;;;;;;;4.20;1.23;;;;;;;23.82;73.16;101159.50;5053469;28;20029;-87
2022/08/28 07:54:31;;;;;;;4.85;1.33;;;;;;;24.15;71.14;101162.91;5027965;28;20394;-87
2022/08/28 07:56:57;;;;;;;5.25;1.30;;;;;;;24.46;68.31;101156.69;5027108;28;20036;-87
2022/08/28 07:59:22;;;;;;;6.13;1.20;;;;;;;24.97;65.81;101163.41;5032242;28;20026;-87
2022/08/28 08:01:50;;;;;;;6.20;1.83;;;;;;;24.91;63.45;101171.16;5033064;28;20035;-87
2022/08/28 08:04:16;;;;;;;9.15;1.35;;;;;;;24.85;63.47;101166.50;5034656;28;20455;-87
2022/08/28 08:06:43;;;;;;;7.05;1.08;;;;;;;25.56;60.74;101168.94;5039784;28;20026;-86
2022/08/28 08:09:12;;;;;;;4.38;1.13;;;;;;;24.58;62.68;101170.56;5012843;28;20037;-87
2022/08/28 08:11:37;;;;;;;4.80;1.00;;;;;;;24.89;62.61;101167.81;5023830;28;20033;-87
2022/08/28 08:14:04;;;;;;;6.82;1.02;;;;;;;25.07;61.78;101172.06;5030270;28;20452;-87
2022/08/28 08:16:34;;;;;;;2.92;1.00;;;;;;;24.97;61.92;101166.94;5033813;28;20022;-87
2022/08/28 08:19:01;;;;;;;3.22;0.93;;;;;;;25.43;60.77;101161.50;5033694;28;20030;-87
2022/08/28 08:21:27;;;;;;;3.72;1.02;;;;;;;26.32;57.98;101166.00;5033935;28;20021;-87
2022/08/28 08:23:52;;;;;;;1.55;0.70;;;;;;;27.20;54.84;101165.88;5032686;28;20091;-87
2022/08/28 08:26:21;;;;;;;3.03;0.65;;;;;;;27.26;52.98;101171.31;5033660;28;20061;-87
2022/08/28 08:28:49;;;;;;;5.60;1.48;;;;;;;28.66;50.10;101165.81;5018751;28;20041;-87
2022/08/28 08:31:25;;;;;;;3.83;0.82;;;;;;;28.60;48.84;101175.56;5018346;28;20037;-87
2022/08/28 08:33:54;;;;;;;3.10;0.70;;;;;;;28.44;48.74;101171.34;5039111;28;20384;-87
2022/08/28 08:36:22;;;;;;;2.72;0.93;;;;;;;29.04;48.07;101170.63;5028369;28;20478;-87
2022/08/28 08:38:49;;;;;;;4.00;1.38;;;;;;;27.83;49.93;101176.69;5014889;28;20034;-87
2022/08/28 08:41:26;;;;;;;2.40;0.90;;;;;;;27.89;48.68;101184.00;5008582;28;20044;-87
2022/08/28 08:43:51;;;;;;;7.68;2.22;;;;;;;28.15;48.36;101177.06;5021266;28;20026;-86
2022/08/28 08:46:20;;;;;;;3.22;1.20;;;;;;;28.74;48.00;101170.19;5024445;28;20079;-88
2022/08/28 08:48:46;;;;;;;6.45;1.20;;;;;;;28.44;48.64;101187.56;5010297;28;20265;-89
2022/08/28 08:51:30;;;;;;;2.88;0.75;;;;;;;27.87;48.41;101186.03;5022242;28;20080;-88
2022/08/28 08:54:09;;;;;;;4.93;1.30;;;;;;;27.55;49.75;101187.50;5020830;28;20471;-87
2022/08/28 08:56:35;;;;;;;4.60;0.90;;;;;;;28.39;49.21;101181.91;5028064;28;20429;-86
2022/08/28 08:59:03;;;;;;;3.33;0.80;;;;;;;28.59;48.40;101181.16;5026351;28;20093;-87
2022/08/28 09:01:31;;;;;;;2.55;0.60;;;;;;;29.05;46.52;101188.53;5028001;28;20433;-87
2022/08/28 09:04:33;;;;;;;4.38;0.88;;;;;;;28.37;47.38;101192.09;5022866;28;20029;-86
2022/08/28 09:07:03;;;;;;;4.57;0.70;;;;;;;27.98;47.56;101190.06;5032895;28;20128;-86
2022/08/28 09:09:36;;;;;;;4.00;0.93;;;;;;;27.62;48.58;101183.81;5009795;28;20068;-85
2022/08/28 09:12:07;;;;;;;5.07;0.90;;;;;;;28.27;48.58;101170.03;5009575;28;20038;-85
2022/08/28 09:14:56;;;;;;;2.70;1.33;;;;;;;29.18;46.34;101183.13;5025660;28;20036;-87
2022/08/28 09:17:26;;;;;;;7.50;1.00;;;;;;;29.85;44.58;101177.63;5014945;28;20031;-86
2022/08/28 09:19:52;;;;;;;2.45;0.60;;;;;;;29.75;43.76;101177.25;5027449;28;20372;-85
2022/08/28 09:22:17;;;;;;;3.97;1.23;;;;;;;29.37;44.06;101177.94;5021780;28;20041;-87
2022/08/28 09:24:43;;;;;;;7.53;1.83;;;;;;;30.37;43.69;101175.78;5027468;28;20021;-85
2022/08/28 09:27:28;;;;;;;6.28;1.80;;;;;;;30.84;41.83;101180.88;5025922;28;20033;-85
2022/08/28 09:30:30;;;;;;;9.38;1.10;;;;;;;30.50;42.52;101185.69;5022212;28;20490;-86
2022/08/28 09:32:59;;;;;;;3.88;1.00;;;;;;;30.94;42.56;101180.44;5030302;28;20048;-86
2022/08/28 09:35:28;;;;;;;2.70;0.80;;;;;;;32.66;38.44;101171.41;5025861;28;20487;-86
2022/08/28 09:37:54;;;;;;;5.75;0.70;;;;;;;31.85;39.47;101175.41;5025150;28;20065;-86
2022/08/28 09:43:25;;;;;;;3.83;0.98;;;;;;;31.99;38.75;101163.31;5031441;28;20037;-86
2022/08/28 09:43:28;;;;;;;2.13;0.68;;;;;;;30.93;39.03;101167.94;5032033;28;20076;-86
2022/08/28 09:46:00;;;;;;;3.22;0.52;;;;;;;30.91;39.13;101175.47;5034364;28;20386;-86
2022/08/28 09:48:47;;;;;;;5.78;0.80;;;;;;;30.98;40.20;101165.38;5040298;28;20109;-86
2022/08/28 09:51:21;;;;;;;2.58;0.75;;;;;;;31.54;38.68;101169.91;5031916;28;20033;-85
2022/08/28 09:53:49;;;;;;;9.05;1.25;;;;;;;31.31;39.48;101165.06;5031176;28;20368;-86
2022/08/28 09:56:26;;;;;;;4.65;0.63;;;;;;;31.59;38.16;101161.88;5031966;28;20036;-85
2022/08/28 09:58:56;;;;;;;4.22;0.70;;;;;;;29.97;40.57;101162.38;5026883;28;20076;-86
2022/08/28 10:01:48;;;;;;;4.97;0.70;;;;;;;30.09;40.58;101167.94;5032895;28;20067;-86
2022/08/28 10:04:25;;;;;;;2.42;0.68;;;;;;;30.83;39.42;101158.38;5037029;28;20036;-86
2022/08/28 10:06:55;;;;;;;3.45;0.50;;;;;;;30.70;39.14;101168.47;5051059;28;20029;-85
2022/08/28 10:09:27;;;;;;;2.70;0.60;;;;;;;30.79;39.42;101161.75;5034114;28;20029;-86
2022/08/28 10:12:20;;;;;;;2.90;0.47;;;;;;;32.06;37.65;101160.56;5031437;28;20026;-86
2022/08/28 10:14:52;;;;;;;2.63;0.43;;;;;;;32.59;36.10;101159.84;5016617;28;20045;-86
2022/08/28 10:17:28;;;;;;;1.95;0.70;;;;;;;31.19;37.05;101159.56;5031488;28;20546;-85
2022/08/28 10:20:09;;;;;;;3.85;0.65;;;;;;;30.63;38.21;101158.53;5031641;28;20042;-86
2022/08/28 10:23:03;;;;;;;4.00;0.77;;;;;;;32.50;37.27;101155.75;5030477;28;20527;-87
2022/08/28 10:25:40;;;;;;;2.60;0.55;;;;;;;33.62;33.77;101151.38;5022518;28;20507;-87
2022/08/28 10:28:36;;;;;;;3.38;0.50;;;;;;;33.05;33.41;101158.25;5040770;28;20090;-87
2022/08/28 10:31:04;;;;;;;3.10;0.70;;;;;;;35.72;30.28;101146.84;5029193;28;20041;-87
2022/08/28 10:33:42;;;;;;;2.03;0.57;;;;;;;34.47;30.88;101155.28;5031312;28;20029;-87
2022/08/28 10:36:13;;;;;;;1.85;0.50;;;;;;;34.73;30.57;101146.47;5030157;28;20112;-87
2022/08/28 10:38:43;;;;;;;4.78;0.30;;;;;;;35.82;30.67;101146.97;5031700;28;20025;-87
2022/08/28 10:41:19;;;;;;;11.77;0.80;;;;;;;36.00;30.33;101147.72;5038245;28;20034;-87
2022/08/28 10:43:50;;;;;;;1.08;0.38;;;;;;;34.62;31.03;101149.25;5028917;28;20717;-87
2022/08/28 10:46:23;;;;;;;;;;;;;;;35.49;29.82;101154.19;5014536;28;20038;-88
2022/08/28 10:48:58;;;;;;;1.98;0.38;;;;;;;35.92;29.70;101144.38;5026679;28;19967;-87
2022/08/28 10:51:39;;;;;;;1.00;0.20;;;;;;;36.27;29.49;101140.38;5011939;28;20026;-87
2022/08/28 10:54:16;;;;;;;;;;;;;;;35.07;29.14;101141.03;5025989;28;20230;-87
2022/08/28 10:56:49;;;;;;;;;;;;;;;34.70;30.63;101144.25;5031170;28;19913;-87
2022/08/28 10:59:14;;;;;;;;;;;;;;;34.62;30.00;101150.09;5012075;28;19921;-86
2022/08/28 11:01:40;;;;;;;;;;;;;;;34.48;29.90;101148.72;5020475;28;19963;-87
2022/08/28 11:04:15;;;;;;;;;;;;;;;34.49;29.95;101142.22;5031530;28;19970;-87
2022/08/28 11:06:44;;;;;;;;;;;;;;;34.31;30.79;101138.63;5029549;28;19936;-87
2022/08/28 11:09:26;;;;;;;3.80;0.55;;;;;;;33.46;34.04;101136.63;5031133;28;19933;-87
2022/08/28 11:11:58;;;;;;;2.97;0.55;;;;;;;32.46;32.87;101140.97;5028691;28;19969;-86
2022/08/28 11:14:26;;;;;;;2.08;0.38;;;;;;;32.44;32.73;101143.09;5030671;28;20021;-86
2022/08/28 11:16:55;;;;;;;3.30;0.70;;;;;;;31.86;33.47;101139.88;5034896;28;20022;-87
2022/08/28 11:19:57;;;;;;;3.63;0.63;;;;;;;31.27;33.98;101136.72;5032722;28;20499;-87
2022/08/28 11:22:28;;;;;;;2.25;0.30;;;;;;;31.97;35.12;101135.53;5034075;28;20475;-86
2022/08/28 11:25:23;;;;;;;1.73;0.50;;;;;;;32.90;32.50;101128.81;5018990;28;20038;-89
2022/08/28 11:28:10;;;;;;;2.80;0.50;;;;;;;34.13;31.74;101125.19;5034620;28;20032;-89
2022/08/28 11:30:36;;;;;;;5.18;0.38;;;;;;;34.71;31.18;101124.06;5034610;28;20513;-88
2022/08/28 11:33:05;;;;;;;2.30;0.40;;;;;;;35.06;29.92;101112.06;5034743;28;20029;-89
2022/08/28 11:35:47;;;;;;;1.95;0.57;;;;;;;35.76;29.27;101109.75;5034491;28;20071;-88
2022/08/28 11:38:41;;;;;;;1.23;0.50;;;;;;;34.47;30.43;101119.84;5030213;28;20036;-87
2022/08/28 11:41:13;;;;;;;1.38;0.50;;;;;;;32.69;32.02;101116.59;5028768;28;20029;-87